sensor_id;sensor_type;location;lat;lon;timestamp;temperature;humidity
70456;DHT22;57916;51.996;5.180;2022-12-24T00:01:03;13.40;74.70
70456;DHT22;57916;51.996;5.180;2022-12-24T00:03:30;13.40;74.60
70456;DHT22;57916;51.996;5.180;2022-12-24T00:05:58;13.40;74.50
70456;DHT22;57916;51.996;5.180;2022-12-24T00:08:29;13.40;74.50
70456;DHT22;57916;51.996;5.180;2022-12-24T00:10:56;13.40;74.60
70456;DHT22;57916;51.996;5.180;2022-12-24T00:13:23;13.40;74.40
70456;DHT22;57916;51.996;5.180;2022-12-24T00:15:50;13.40;74.40
70456;DHT22;57916;51.996;5.180;2022-12-24T00:18:17;13.40;74.30
70456;DHT22;57916;51.996;5.180;2022-12-24T00:20:48;13.30;74.20
70456;DHT22;57916;51.996;5.180;2022-12-24T00:23:15;13.30;74.30
70456;DHT22;57916;51.996;5.180;2022-12-24T00:25:43;13.40;74.20
70456;DHT22;57916;51.996;5.180;2022-12-24T00:28:11;13.30;74.00
70456;DHT22;57916;51.996;5.180;2022-12-24T00:30:39;13.30;73.90
70456;DHT22;57916;51.996;5.180;2022-12-24T00:33:06;13.30;73.80
70456;DHT22;57916;51.996;5.180;2022-12-24T00:35:37;13.20;73.80
70456;DHT22;57916;51.996;5.180;2022-12-24T00:38:05;13.20;73.90
70456;DHT22;57916;51.996;5.180;2022-12-24T00:40:32;13.20;73.90
70456;DHT22;57916;51.996;5.180;2022-12-24T00:43:00;13.10;74.00
70456;DHT22;57916;51.996;5.180;2022-12-24T00:45:26;13.10;74.10
70456;DHT22;57916;51.996;5.180;2022-12-24T00:47:53;13.10;74.20
70456;DHT22;57916;51.996;5.180;2022-12-24T00:50:20;13.10;74.30
70456;DHT22;57916;51.996;5.180;2022-12-24T00:52:47;13.10;74.40
70456;DHT22;57916;51.996;5.180;2022-12-24T00:55:14;13.10;74.30
70456;DHT22;57916;51.996;5.180;2022-12-24T00:57:41;13.00;75.20
70456;DHT22;57916;51.996;5.180;2022-12-24T01:00:09;13.00;74.60
70456;DHT22;57916;51.996;5.180;2022-12-24T01:02:36;13.00;74.50
70456;DHT22;57916;51.996;5.180;2022-12-24T01:05:03;13.00;74.40
70456;DHT22;57916;51.996;5.180;2022-12-24T01:07:39;12.90;74.40
70456;DHT22;57916;51.996;5.180;2022-12-24T01:10:07;12.90;74.50
70456;DHT22;57916;51.996;5.180;2022-12-24T01:12:35;12.80;74.40
70456;DHT22;57916;51.996;5.180;2022-12-24T01:15:03;12.80;74.50
70456;DHT22;57916;51.996;5.180;2022-12-24T01:17:32;12.80;74.60
70456;DHT22;57916;51.996;5.180;2022-12-24T01:19:59;12.80;74.50
70456;DHT22;57916;51.996;5.180;2022-12-24T01:22:26;12.80;74.60
70456;DHT22;57916;51.996;5.180;2022-12-24T01:24:53;12.80;74.60
70456;DHT22;57916;51.996;5.180;2022-12-24T01:27:20;12.70;74.50
70456;DHT22;57916;51.996;5.180;2022-12-24T01:29:47;12.70;74.50
70456;DHT22;57916;51.996;5.180;2022-12-24T01:32:14;12.70;74.50
70456;DHT22;57916;51.996;5.180;2022-12-24T01:34:41;12.70;74.50
70456;DHT22;57916;51.996;5.180;2022-12-24T01:37:08;12.70;74.50
70456;DHT22;57916;51.996;5.180;2022-12-24T01:39:35;12.70;74.50
70456;DHT22;57916;51.996;5.180;2022-12-24T01:42:08;12.70;74.50
70456;DHT22;57916;51.996;5.180;2022-12-24T01:45:21;12.70;74.60
70456;DHT22;57916;51.996;5.180;2022-12-24T01:47:42;12.60;74.60
70456;DHT22;57916;51.996;5.180;2022-12-24T01:50:14;12.60;74.60
70456;DHT22;57916;51.996;5.180;2022-12-24T01:52:43;12.70;74.60
70456;DHT22;57916;51.996;5.180;2022-12-24T01:55:13;12.60;74.60
70456;DHT22;57916;51.996;5.180;2022-12-24T01:57:47;12.60;74.70
70456;DHT22;57916;51.996;5.180;2022-12-24T02:00:15;12.60;74.70
70456;DHT22;57916;51.996;5.180;2022-12-24T02:02:48;12.60;74.70
70456;DHT22;57916;51.996;5.180;2022-12-24T02:07:51;12.60;74.70
70456;DHT22;57916;51.996;5.180;2022-12-24T02:10:18;12.50;74.70
70456;DHT22;57916;51.996;5.180;2022-12-24T02:12:45;12.50;74.60
70456;DHT22;57916;51.996;5.180;2022-12-24T02:15:15;12.50;74.50
70456;DHT22;57916;51.996;5.180;2022-12-24T02:32:10;12.30;74.70
70456;DHT22;57916;51.996;5.180;2022-12-24T02:34:50;12.30;74.80
70456;DHT22;57916;51.996;5.180;2022-12-24T02:37:27;12.30;75.00
70456;DHT22;57916;51.996;5.180;2022-12-24T02:40:05;12.30;74.90
70456;DHT22;57916;51.996;5.180;2022-12-24T02:42:45;12.30;74.70
70456;DHT22;57916;51.996;5.180;2022-12-24T02:45:17;12.30;74.50
70456;DHT22;57916;51.996;5.180;2022-12-24T02:47:45;12.30;74.60
70456;DHT22;57916;51.996;5.180;2022-12-24T02:50:15;12.20;74.80
70456;DHT22;57916;51.996;5.180;2022-12-24T02:52:44;12.20;75.00
70456;DHT22;57916;51.996;5.180;2022-12-24T02:55:31;12.20;75.10
70456;DHT22;57916;51.996;5.180;2022-12-24T03:03:26;12.20;75.60
70456;DHT22;57916;51.996;5.180;2022-12-24T03:06:22;12.20;75.90
70456;DHT22;57916;51.996;5.180;2022-12-24T03:08:54;12.20;76.20
70456;DHT22;57916;51.996;5.180;2022-12-24T03:11:24;12.30;76.30
70456;DHT22;57916;51.996;5.180;2022-12-24T03:13:52;12.30;76.30
70456;DHT22;57916;51.996;5.180;2022-12-24T03:16:23;12.40;76.60
70456;DHT22;57916;51.996;5.180;2022-12-24T03:18:52;12.40;76.60
70456;DHT22;57916;51.996;5.180;2022-12-24T03:21:29;12.40;76.70
70456;DHT22;57916;51.996;5.180;2022-12-24T03:23:57;12.50;76.80
70456;DHT22;57916;51.996;5.180;2022-12-24T03:26:26;12.50;76.80
70456;DHT22;57916;51.996;5.180;2022-12-24T03:28:54;12.60;76.80
70456;DHT22;57916;51.996;5.180;2022-12-24T03:31:21;12.60;76.80
70456;DHT22;57916;51.996;5.180;2022-12-24T03:33:49;12.60;76.80
70456;DHT22;57916;51.996;5.180;2022-12-24T03:36:16;12.70;76.90
70456;DHT22;57916;51.996;5.180;2022-12-24T03:38:43;12.70;76.90
70456;DHT22;57916;51.996;5.180;2022-12-24T03:41:10;12.70;76.90
70456;DHT22;57916;51.996;5.180;2022-12-24T03:43:37;12.70;77.00
70456;DHT22;57916;51.996;5.180;2022-12-24T03:46:06;12.70;77.10
70456;DHT22;57916;51.996;5.180;2022-12-24T03:48:36;12.70;77.20
70456;DHT22;57916;51.996;5.180;2022-12-24T03:51:03;12.80;77.30
70456;DHT22;57916;51.996;5.180;2022-12-24T03:53:30;12.80;77.30
70456;DHT22;57916;51.996;5.180;2022-12-24T03:55:57;12.80;77.10
70456;DHT22;57916;51.996;5.180;2022-12-24T03:58:24;12.90;76.90
70456;DHT22;57916;51.996;5.180;2022-12-24T04:00:52;12.90;76.80
70456;DHT22;57916;51.996;5.180;2022-12-24T04:03:19;12.90;76.90
70456;DHT22;57916;51.996;5.180;2022-12-24T04:05:47;12.90;76.80
70456;DHT22;57916;51.996;5.180;2022-12-24T04:08:13;12.90;76.70
70456;DHT22;57916;51.996;5.180;2022-12-24T04:10:40;13.00;76.80
70456;DHT22;57916;51.996;5.180;2022-12-24T04:13:07;13.00;76.90
70456;DHT22;57916;51.996;5.180;2022-12-24T04:15:34;13.00;76.90
70456;DHT22;57916;51.996;5.180;2022-12-24T04:18:01;13.00;76.90
70456;DHT22;57916;51.996;5.180;2022-12-24T04:20:28;13.00;76.90
70456;DHT22;57916;51.996;5.180;2022-12-24T04:22:55;13.00;77.00
70456;DHT22;57916;51.996;5.180;2022-12-24T04:25:22;13.00;77.00
70456;DHT22;57916;51.996;5.180;2022-12-24T04:27:49;13.10;77.10
70456;DHT22;57916;51.996;5.180;2022-12-24T04:30:16;13.10;77.10
70456;DHT22;57916;51.996;5.180;2022-12-24T04:32:42;13.10;77.10
70456;DHT22;57916;51.996;5.180;2022-12-24T04:35:09;13.10;76.90
70456;DHT22;57916;51.996;5.180;2022-12-24T04:37:36;13.20;76.90
70456;DHT22;57916;51.996;5.180;2022-12-24T04:40:03;13.10;76.90
70456;DHT22;57916;51.996;5.180;2022-12-24T04:42:30;13.20;76.90
70456;DHT22;57916;51.996;5.180;2022-12-24T04:44:57;13.20;77.00
70456;DHT22;57916;51.996;5.180;2022-12-24T04:47:24;13.20;76.90
70456;DHT22;57916;51.996;5.180;2022-12-24T04:49:51;13.20;76.90
70456;DHT22;57916;51.996;5.180;2022-12-24T04:52:18;13.20;76.90
70456;DHT22;57916;51.996;5.180;2022-12-24T04:54:45;13.20;76.80
70456;DHT22;57916;51.996;5.180;2022-12-24T04:57:12;13.20;76.90
70456;DHT22;57916;51.996;5.180;2022-12-24T04:59:39;13.20;76.80
70456;DHT22;57916;51.996;5.180;2022-12-24T05:02:06;13.30;76.90
70456;DHT22;57916;51.996;5.180;2022-12-24T05:04:33;13.20;77.00
70456;DHT22;57916;51.996;5.180;2022-12-24T05:07:00;13.30;77.10
70456;DHT22;57916;51.996;5.180;2022-12-24T05:09:27;13.30;77.10
70456;DHT22;57916;51.996;5.180;2022-12-24T05:11:54;13.30;76.90
70456;DHT22;57916;51.996;5.180;2022-12-24T05:14:21;13.30;77.10
70456;DHT22;57916;51.996;5.180;2022-12-24T05:16:48;13.30;77.10
70456;DHT22;57916;51.996;5.180;2022-12-24T05:19:15;13.30;77.10
70456;DHT22;57916;51.996;5.180;2022-12-24T05:21:42;13.30;77.20
70456;DHT22;57916;51.996;5.180;2022-12-24T05:24:10;13.30;77.20
70456;DHT22;57916;51.996;5.180;2022-12-24T05:26:56;13.30;77.30
70456;DHT22;57916;51.996;5.180;2022-12-24T05:29:24;13.40;77.40
70456;DHT22;57916;51.996;5.180;2022-12-24T05:31:51;13.40;77.40
70456;DHT22;57916;51.996;5.180;2022-12-24T05:34:18;13.40;77.40
70456;DHT22;57916;51.996;5.180;2022-12-24T05:36:45;13.40;77.40
70456;DHT22;57916;51.996;5.180;2022-12-24T05:39:16;13.40;77.40
70456;DHT22;57916;51.996;5.180;2022-12-24T05:41:45;13.40;77.30
70456;DHT22;57916;51.996;5.180;2022-12-24T05:44:12;13.40;77.20
70456;DHT22;57916;51.996;5.180;2022-12-24T05:46:40;13.40;77.10
70456;DHT22;57916;51.996;5.180;2022-12-24T05:49:07;13.50;77.10
70456;DHT22;57916;51.996;5.180;2022-12-24T05:51:34;13.40;77.10
70456;DHT22;57916;51.996;5.180;2022-12-24T05:54:01;13.50;77.00
70456;DHT22;57916;51.996;5.180;2022-12-24T05:56:28;13.50;76.90
70456;DHT22;57916;51.996;5.180;2022-12-24T05:58:55;13.40;76.80
70456;DHT22;57916;51.996;5.180;2022-12-24T06:01:22;13.40;76.80
70456;DHT22;57916;51.996;5.180;2022-12-24T06:03:50;13.40;76.80
70456;DHT22;57916;51.996;5.180;2022-12-24T06:06:20;13.50;76.90
70456;DHT22;57916;51.996;5.180;2022-12-24T06:08:48;13.50;76.90
70456;DHT22;57916;51.996;5.180;2022-12-24T06:11:21;13.50;77.70
70456;DHT22;57916;51.996;5.180;2022-12-24T06:13:49;13.50;76.70
70456;DHT22;57916;51.996;5.180;2022-12-24T06:16:18;13.50;76.60
70456;DHT22;57916;51.996;5.180;2022-12-24T06:18:45;13.50;76.50
70456;DHT22;57916;51.996;5.180;2022-12-24T06:21:12;13.50;76.50
70456;DHT22;57916;51.996;5.180;2022-12-24T06:23:41;13.50;76.50
70456;DHT22;57916;51.996;5.180;2022-12-24T06:26:11;13.60;76.60
70456;DHT22;57916;51.996;5.180;2022-12-24T06:28:38;13.50;76.60
70456;DHT22;57916;51.996;5.180;2022-12-24T06:31:08;13.50;76.60
70456;DHT22;57916;51.996;5.180;2022-12-24T06:33:36;13.50;76.70
70456;DHT22;57916;51.996;5.180;2022-12-24T06:36:08;13.50;76.80
70456;DHT22;57916;51.996;5.180;2022-12-24T06:38:43;13.40;76.80
70456;DHT22;57916;51.996;5.180;2022-12-24T06:41:10;13.40;76.80
70456;DHT22;57916;51.996;5.180;2022-12-24T06:43:37;13.40;76.70
70456;DHT22;57916;51.996;5.180;2022-12-24T06:46:04;13.40;76.60
70456;DHT22;57916;51.996;5.180;2022-12-24T06:48:31;13.40;76.60
70456;DHT22;57916;51.996;5.180;2022-12-24T06:51:01;13.40;76.50
70456;DHT22;57916;51.996;5.180;2022-12-24T06:53:28;13.40;76.40
70456;DHT22;57916;51.996;5.180;2022-12-24T06:56:07;13.40;76.30
70456;DHT22;57916;51.996;5.180;2022-12-24T06:58:35;13.40;76.20
70456;DHT22;57916;51.996;5.180;2022-12-24T07:01:03;13.30;76.10
70456;DHT22;57916;51.996;5.180;2022-12-24T07:03:31;13.30;76.00
70456;DHT22;57916;51.996;5.180;2022-12-24T07:05:59;13.30;76.00
70456;DHT22;57916;51.996;5.180;2022-12-24T07:08:26;13.30;75.90
70456;DHT22;57916;51.996;5.180;2022-12-24T07:10:53;13.20;75.90
70456;DHT22;57916;51.996;5.180;2022-12-24T07:13:20;13.20;75.90
70456;DHT22;57916;51.996;5.180;2022-12-24T07:15:59;13.20;75.90
70456;DHT22;57916;51.996;5.180;2022-12-24T07:18:26;13.10;75.90
70456;DHT22;57916;51.996;5.180;2022-12-24T07:20:53;13.10;76.00
70456;DHT22;57916;51.996;5.180;2022-12-24T07:23:20;13.10;76.10
70456;DHT22;57916;51.996;5.180;2022-12-24T07:25:47;13.10;76.10
70456;DHT22;57916;51.996;5.180;2022-12-24T07:28:17;13.10;76.00
70456;DHT22;57916;51.996;5.180;2022-12-24T07:30:54;13.00;76.10
70456;DHT22;57916;51.996;5.180;2022-12-24T07:33:21;13.00;76.10
70456;DHT22;57916;51.996;5.180;2022-12-24T07:35:48;13.00;76.20
70456;DHT22;57916;51.996;5.180;2022-12-24T07:38:21;13.00;76.20
70456;DHT22;57916;51.996;5.180;2022-12-24T07:40:48;13.00;76.30
70456;DHT22;57916;51.996;5.180;2022-12-24T07:43:15;13.00;76.30
70456;DHT22;57916;51.996;5.180;2022-12-24T07:45:42;13.00;76.20
70456;DHT22;57916;51.996;5.180;2022-12-24T07:48:09;13.00;76.20
70456;DHT22;57916;51.996;5.180;2022-12-24T07:50:35;13.00;76.20
70456;DHT22;57916;51.996;5.180;2022-12-24T07:53:02;13.00;76.20
70456;DHT22;57916;51.996;5.180;2022-12-24T07:55:29;13.00;76.20
70456;DHT22;57916;51.996;5.180;2022-12-24T07:57:56;13.00;76.30
70456;DHT22;57916;51.996;5.180;2022-12-24T08:00:23;13.00;76.40
70456;DHT22;57916;51.996;5.180;2022-12-24T08:02:50;13.10;76.60
70456;DHT22;57916;51.996;5.180;2022-12-24T08:05:17;13.10;76.60
70456;DHT22;57916;51.996;5.180;2022-12-24T08:07:44;13.10;76.70
70456;DHT22;57916;51.996;5.180;2022-12-24T08:10:11;13.10;76.70
70456;DHT22;57916;51.996;5.180;2022-12-24T08:12:38;13.20;76.70
70456;DHT22;57916;51.996;5.180;2022-12-24T08:15:05;13.20;76.70
70456;DHT22;57916;51.996;5.180;2022-12-24T08:17:32;13.30;76.80
70456;DHT22;57916;51.996;5.180;2022-12-24T08:19:59;13.30;76.80
70456;DHT22;57916;51.996;5.180;2022-12-24T08:22:26;13.30;76.60
70456;DHT22;57916;51.996;5.180;2022-12-24T08:24:53;13.30;76.50
70456;DHT22;57916;51.996;5.180;2022-12-24T08:27:20;13.30;76.40
70456;DHT22;57916;51.996;5.180;2022-12-24T08:29:46;13.40;76.40
70456;DHT22;57916;51.996;5.180;2022-12-24T08:32:13;13.40;76.50
70456;DHT22;57916;51.996;5.180;2022-12-24T08:34:40;13.40;76.40
70456;DHT22;57916;51.996;5.180;2022-12-24T08:37:07;13.40;76.50
70456;DHT22;57916;51.996;5.180;2022-12-24T08:39:34;13.40;76.50
70456;DHT22;57916;51.996;5.180;2022-12-24T08:42:01;13.40;76.50
70456;DHT22;57916;51.996;5.180;2022-12-24T08:44:28;13.40;76.60
70456;DHT22;57916;51.996;5.180;2022-12-24T08:46:57;13.40;76.50
70456;DHT22;57916;51.996;5.180;2022-12-24T08:49:24;13.50;76.70
70456;DHT22;57916;51.996;5.180;2022-12-24T08:51:51;13.50;76.50
70456;DHT22;57916;51.996;5.180;2022-12-24T08:54:18;13.50;76.50
70456;DHT22;57916;51.996;5.180;2022-12-24T08:56:45;13.50;76.40
70456;DHT22;57916;51.996;5.180;2022-12-24T08:59:12;13.60;76.50
70456;DHT22;57916;51.996;5.180;2022-12-24T09:01:39;13.60;76.40
70456;DHT22;57916;51.996;5.180;2022-12-24T09:04:06;13.60;77.10
70456;DHT22;57916;51.996;5.180;2022-12-24T09:06:33;13.60;76.20
70456;DHT22;57916;51.996;5.180;2022-12-24T09:09:00;13.60;76.10
70456;DHT22;57916;51.996;5.180;2022-12-24T09:11:27;13.60;76.00
70456;DHT22;57916;51.996;5.180;2022-12-24T09:13:54;13.60;76.00
70456;DHT22;57916;51.996;5.180;2022-12-24T09:16:21;13.60;75.90
70456;DHT22;57916;51.996;5.180;2022-12-24T09:18:48;13.60;75.80
70456;DHT22;57916;51.996;5.180;2022-12-24T09:21:15;13.60;75.60
70456;DHT22;57916;51.996;5.180;2022-12-24T09:23:45;13.70;75.50
70456;DHT22;57916;51.996;5.180;2022-12-24T09:26:24;13.70;75.40
70456;DHT22;57916;51.996;5.180;2022-12-24T09:28:52;13.70;75.80
70456;DHT22;57916;51.996;5.180;2022-12-24T09:31:19;13.70;75.50
70456;DHT22;57916;51.996;5.180;2022-12-24T09:33:48;13.80;75.40
70456;DHT22;57916;51.996;5.180;2022-12-24T09:36:16;13.80;75.40
70456;DHT22;57916;51.996;5.180;2022-12-24T09:38:44;13.80;75.10
70456;DHT22;57916;51.996;5.180;2022-12-24T09:41:45;13.80;75.00
70456;DHT22;57916;51.996;5.180;2022-12-24T09:46:45;13.80;75.40
70456;DHT22;57916;51.996;5.180;2022-12-24T09:49:22;13.80;75.90
70456;DHT22;57916;51.996;5.180;2022-12-24T09:51:58;13.90;76.20
70456;DHT22;57916;51.996;5.180;2022-12-24T09:54:31;14.00;75.80
70456;DHT22;57916;51.996;5.180;2022-12-24T09:57:05;14.10;75.60
70456;DHT22;57916;51.996;5.180;2022-12-24T09:59:46;14.20;75.20
70456;DHT22;57916;51.996;5.180;2022-12-24T10:02:18;14.20;74.80
70456;DHT22;57916;51.996;5.180;2022-12-24T10:04:47;14.30;74.50
70456;DHT22;57916;51.996;5.180;2022-12-24T10:18:38;14.30;73.80
70456;DHT22;57916;51.996;5.180;2022-12-24T10:26:45;14.30;73.90
70456;DHT22;57916;51.996;5.180;2022-12-24T10:29:21;14.30;74.20
70456;DHT22;57916;51.996;5.180;2022-12-24T10:34:42;14.30;74.40
70456;DHT22;57916;51.996;5.180;2022-12-24T10:37:21;14.30;74.50
70456;DHT22;57916;51.996;5.180;2022-12-24T10:39:49;14.40;74.70
70456;DHT22;57916;51.996;5.180;2022-12-24T10:42:16;14.50;74.50
70456;DHT22;57916;51.996;5.180;2022-12-24T10:44:48;14.50;74.00
70456;DHT22;57916;51.996;5.180;2022-12-24T10:47:17;14.50;73.70
70456;DHT22;57916;51.996;5.180;2022-12-24T10:50:02;14.50;74.60
70456;DHT22;57916;51.996;5.180;2022-12-24T10:52:33;14.50;73.30
70456;DHT22;57916;51.996;5.180;2022-12-24T10:57:45;14.50;73.20
70456;DHT22;57916;51.996;5.180;2022-12-24T11:00:23;14.50;73.10
70456;DHT22;57916;51.996;5.180;2022-12-24T11:03:23;14.50;72.70
70456;DHT22;57916;51.996;5.180;2022-12-24T11:06:12;14.40;72.80
70456;DHT22;57916;51.996;5.180;2022-12-24T11:08:42;14.50;73.00
70456;DHT22;57916;51.996;5.180;2022-12-24T11:11:19;14.50;74.00
70456;DHT22;57916;51.996;5.180;2022-12-24T11:16:22;14.40;72.80
70456;DHT22;57916;51.996;5.180;2022-12-24T11:18:52;14.50;72.70
70456;DHT22;57916;51.996;5.180;2022-12-24T11:21:34;14.40;72.70
70456;DHT22;57916;51.996;5.180;2022-12-24T11:26:41;14.40;72.80
70456;DHT22;57916;51.996;5.180;2022-12-24T11:29:15;14.40;72.60
70456;DHT22;57916;51.996;5.180;2022-12-24T11:31:46;14.40;72.70
70456;DHT22;57916;51.996;5.180;2022-12-24T11:34:28;14.40;72.70
70456;DHT22;57916;51.996;5.180;2022-12-24T11:37:16;14.40;72.90
70456;DHT22;57916;51.996;5.180;2022-12-24T11:39:53;14.40;73.00
70456;DHT22;57916;51.996;5.180;2022-12-24T11:42:35;14.30;72.90
70456;DHT22;57916;51.996;5.180;2022-12-24T11:47:41;14.40;72.80
70456;DHT22;57916;51.996;5.180;2022-12-24T11:50:27;14.40;72.40
70456;DHT22;57916;51.996;5.180;2022-12-24T11:52:59;14.40;72.30
70456;DHT22;57916;51.996;5.180;2022-12-24T11:55:51;14.40;72.20
70456;DHT22;57916;51.996;5.180;2022-12-24T12:03:52;14.40;72.50
70456;DHT22;57916;51.996;5.180;2022-12-24T12:06:48;14.50;72.70
70456;DHT22;57916;51.996;5.180;2022-12-24T12:09:27;14.60;72.60
70456;DHT22;57916;51.996;5.180;2022-12-24T12:12:12;14.50;72.60
70456;DHT22;57916;51.996;5.180;2022-12-24T12:14:47;14.60;72.80
70456;DHT22;57916;51.996;5.180;2022-12-24T12:19:54;14.60;72.40
70456;DHT22;57916;51.996;5.180;2022-12-24T12:22:33;14.60;73.10
70456;DHT22;57916;51.996;5.180;2022-12-24T12:25:02;14.60;72.00
70456;DHT22;57916;51.996;5.180;2022-12-24T12:27:36;14.60;71.90
70456;DHT22;57916;51.996;5.180;2022-12-24T12:30:16;14.60;72.00
70456;DHT22;57916;51.996;5.180;2022-12-24T12:35:31;14.60;72.00
70456;DHT22;57916;51.996;5.180;2022-12-24T12:38:03;14.60;72.10
70456;DHT22;57916;51.996;5.180;2022-12-24T12:40:54;14.60;71.90
70456;DHT22;57916;51.996;5.180;2022-12-24T12:46:10;14.60;71.30
70456;DHT22;57916;51.996;5.180;2022-12-24T12:57:14;14.60;70.90
70456;DHT22;57916;51.996;5.180;2022-12-24T13:00:28;14.70;71.40
70456;DHT22;57916;51.996;5.180;2022-12-24T13:09:08;14.70;70.90
70456;DHT22;57916;51.996;5.180;2022-12-24T13:11:59;14.70;70.90
70456;DHT22;57916;51.996;5.180;2022-12-24T13:19:57;14.60;70.80
70456;DHT22;57916;51.996;5.180;2022-12-24T13:22:27;14.60;70.90
70456;DHT22;57916;51.996;5.180;2022-12-24T13:24:55;14.60;70.90
70456;DHT22;57916;51.996;5.180;2022-12-24T13:27:23;14.60;70.90
70456;DHT22;57916;51.996;5.180;2022-12-24T13:30:40;14.60;70.90
70456;DHT22;57916;51.996;5.180;2022-12-24T13:33:46;14.60;70.70
70456;DHT22;57916;51.996;5.180;2022-12-24T13:36:15;14.60;70.40
70456;DHT22;57916;51.996;5.180;2022-12-24T13:38:51;14.60;70.40
70456;DHT22;57916;51.996;5.180;2022-12-24T13:49:39;14.40;70.30
70456;DHT22;57916;51.996;5.180;2022-12-24T13:54:49;14.30;70.40
70456;DHT22;57916;51.996;5.180;2022-12-24T13:57:40;14.40;70.50
70456;DHT22;57916;51.996;5.180;2022-12-24T14:05:44;14.40;70.40
70456;DHT22;57916;51.996;5.180;2022-12-24T14:08:31;14.40;70.40
70456;DHT22;57916;51.996;5.180;2022-12-24T14:11:20;14.40;70.70
70456;DHT22;57916;51.996;5.180;2022-12-24T14:16:21;14.40;71.00
70456;DHT22;57916;51.996;5.180;2022-12-24T14:19:13;14.40;71.00
70456;DHT22;57916;51.996;5.180;2022-12-24T14:21:54;14.40;70.80
70456;DHT22;57916;51.996;5.180;2022-12-24T14:24:25;14.40;71.10
70456;DHT22;57916;51.996;5.180;2022-12-24T14:26:56;14.30;71.00
70456;DHT22;57916;51.996;5.180;2022-12-24T14:29:28;14.30;71.10
70456;DHT22;57916;51.996;5.180;2022-12-24T14:31:57;14.30;71.10
70456;DHT22;57916;51.996;5.180;2022-12-24T14:34:25;14.30;71.10
70456;DHT22;57916;51.996;5.180;2022-12-24T14:36:54;14.40;71.10
70456;DHT22;57916;51.996;5.180;2022-12-24T14:39:34;14.40;71.10
70456;DHT22;57916;51.996;5.180;2022-12-24T14:48:30;14.40;71.00
70456;DHT22;57916;51.996;5.180;2022-12-24T14:56:26;14.40;71.00
70456;DHT22;57916;51.996;5.180;2022-12-24T14:58:53;14.30;70.90
70456;DHT22;57916;51.996;5.180;2022-12-24T15:01:27;14.30;71.00
70456;DHT22;57916;51.996;5.180;2022-12-24T15:04:04;14.30;71.10
70456;DHT22;57916;51.996;5.180;2022-12-24T15:06:46;14.20;71.10
70456;DHT22;57916;51.996;5.180;2022-12-24T15:09:19;14.30;71.10
70456;DHT22;57916;51.996;5.180;2022-12-24T15:11:48;14.20;71.10
70456;DHT22;57916;51.996;5.180;2022-12-24T15:14:17;14.20;71.10
70456;DHT22;57916;51.996;5.180;2022-12-24T15:17:01;14.20;71.10
70456;DHT22;57916;51.996;5.180;2022-12-24T15:19:37;14.10;71.20
70456;DHT22;57916;51.996;5.180;2022-12-24T15:22:09;14.10;71.20
70456;DHT22;57916;51.996;5.180;2022-12-24T15:24:44;14.10;71.20
70456;DHT22;57916;51.996;5.180;2022-12-24T15:27:20;14.00;71.00
70456;DHT22;57916;51.996;5.180;2022-12-24T15:29:51;14.00;70.90
70456;DHT22;57916;51.996;5.180;2022-12-24T15:32:19;13.90;70.70
70456;DHT22;57916;51.996;5.180;2022-12-24T15:34:50;13.90;70.50
70456;DHT22;57916;51.996;5.180;2022-12-24T15:37:27;13.90;70.30
70456;DHT22;57916;51.996;5.180;2022-12-24T15:42:32;13.90;70.00
70456;DHT22;57916;51.996;5.180;2022-12-24T15:45:03;13.80;70.00
70456;DHT22;57916;51.996;5.180;2022-12-24T15:47:36;13.80;69.80
70456;DHT22;57916;51.996;5.180;2022-12-24T15:50:26;13.70;70.00
70456;DHT22;57916;51.996;5.180;2022-12-24T15:52:54;13.70;70.90
70456;DHT22;57916;51.996;5.180;2022-12-24T15:56:32;13.60;69.80
70456;DHT22;57916;51.996;5.180;2022-12-24T15:58:35;13.60;69.70
70456;DHT22;57916;51.996;5.180;2022-12-24T16:01:25;13.50;69.80
70456;DHT22;57916;51.996;5.180;2022-12-24T16:03:55;13.40;69.80
70456;DHT22;57916;51.996;5.180;2022-12-24T16:06:22;13.30;69.90
70456;DHT22;57916;51.996;5.180;2022-12-24T16:08:50;13.20;70.00
70456;DHT22;57916;51.996;5.180;2022-12-24T16:11:20;13.20;70.40
70456;DHT22;57916;51.996;5.180;2022-12-24T16:14:24;13.10;70.60
70456;DHT22;57916;51.996;5.180;2022-12-24T16:16:52;13.00;71.10
70456;DHT22;57916;51.996;5.180;2022-12-24T16:19:26;12.90;71.30
70456;DHT22;57916;51.996;5.180;2022-12-24T16:22:02;12.90;71.50
70456;DHT22;57916;51.996;5.180;2022-12-24T16:24:48;12.90;71.80
70456;DHT22;57916;51.996;5.180;2022-12-24T16:27:17;12.80;71.70
70456;DHT22;57916;51.996;5.180;2022-12-24T16:29:44;12.90;71.70
70456;DHT22;57916;51.996;5.180;2022-12-24T16:34:51;12.90;71.40
70456;DHT22;57916;51.996;5.180;2022-12-24T16:37:18;13.00;71.10
70456;DHT22;57916;51.996;5.180;2022-12-24T16:39:45;13.00;70.70
70456;DHT22;57916;51.996;5.180;2022-12-24T16:42:12;13.00;70.30
70456;DHT22;57916;51.996;5.180;2022-12-24T16:44:59;13.00;70.10
70456;DHT22;57916;51.996;5.180;2022-12-24T16:47:29;13.00;70.50
70456;DHT22;57916;51.996;5.180;2022-12-24T16:50:05;13.00;69.70
70456;DHT22;57916;51.996;5.180;2022-12-24T16:52:33;13.00;69.70
70456;DHT22;57916;51.996;5.180;2022-12-24T16:55:00;13.00;69.60
70456;DHT22;57916;51.996;5.180;2022-12-24T16:57:27;13.00;69.70
70456;DHT22;57916;51.996;5.180;2022-12-24T16:59:54;13.00;69.60
70456;DHT22;57916;51.996;5.180;2022-12-24T17:02:22;13.00;69.50
70456;DHT22;57916;51.996;5.180;2022-12-24T17:04:50;12.90;69.50
70456;DHT22;57916;51.996;5.180;2022-12-24T17:07:19;12.90;69.50
70456;DHT22;57916;51.996;5.180;2022-12-24T17:09:46;12.90;69.40
70456;DHT22;57916;51.996;5.180;2022-12-24T17:12:13;12.90;69.40
70456;DHT22;57916;51.996;5.180;2022-12-24T17:14:41;12.90;69.40
70456;DHT22;57916;51.996;5.180;2022-12-24T17:17:37;12.80;69.50
70456;DHT22;57916;51.996;5.180;2022-12-24T17:20:05;12.80;69.50
70456;DHT22;57916;51.996;5.180;2022-12-24T17:22:33;12.70;69.40
70456;DHT22;57916;51.996;5.180;2022-12-24T17:25:01;12.70;69.90
70456;DHT22;57916;51.996;5.180;2022-12-24T17:27:28;12.70;69.70
70456;DHT22;57916;51.996;5.180;2022-12-24T17:29:56;12.70;69.70
70456;DHT22;57916;51.996;5.180;2022-12-24T17:32:26;12.70;69.70
70456;DHT22;57916;51.996;5.180;2022-12-24T17:34:53;12.60;69.40
70456;DHT22;57916;51.996;5.180;2022-12-24T17:37:20;12.60;69.60
70456;DHT22;57916;51.996;5.180;2022-12-24T17:39:48;12.60;69.60
70456;DHT22;57916;51.996;5.180;2022-12-24T17:42:15;12.50;70.10
70456;DHT22;57916;51.996;5.180;2022-12-24T17:44:42;12.50;70.40
70456;DHT22;57916;51.996;5.180;2022-12-24T17:47:09;12.40;70.10
70456;DHT22;57916;51.996;5.180;2022-12-24T17:49:36;12.40;70.80
70456;DHT22;57916;51.996;5.180;2022-12-24T17:52:04;12.40;70.60
70456;DHT22;57916;51.996;5.180;2022-12-24T17:54:42;12.40;70.20
70456;DHT22;57916;51.996;5.180;2022-12-24T17:57:17;12.30;70.10
70456;DHT22;57916;51.996;5.180;2022-12-24T17:59:45;12.30;70.00